sensor_id;sensor_type;location;lat;lon;timestamp;pressure;altitude;pressure_sealevel;temperature;humidity
18813;BME280;9534;51.140;6.296;2023-12-28T00:00:19;67858.00;;;10.28;100.00
18813;BME280;9534;51.140;6.296;2023-12-28T00:04:22;67857.72;;;10.23;100.00
18813;BME280;9534;51.140;6.296;2023-12-28T00:08:25;67853.31;;;10.22;100.00
18813;BME280;9534;51.140;6.296;2023-12-28T00:12:30;67838.75;;;10.14;100.00
18813;BME280;9534;51.140;6.296;2023-12-28T00:16:33;67839.31;;;10.14;100.00
18813;BME280;9534;51.140;6.296;2023-12-28T00:20:38;67830.03;;;10.04;100.00
18813;BME280;9534;51.140;6.296;2023-12-28T00:24:41;67821.19;;;10.01;100.00
18813;BME280;9534;51.140;6.296;2023-12-28T00:28:45;67824.31;;;9.99;100.00
18813;BME280;9534;51.140;6.296;2023-12-28T00:32:49;67827.75;;;10.02;100.00
18813;BME280;9534;51.140;6.296;2023-12-28T00:36:53;67819.75;;;10.04;100.00
18813;BME280;9534;51.140;6.296;2023-12-28T00:40:57;67840.88;;;10.13;100.00
18813;BME280;9534;51.140;6.296;2023-12-28T00:45:01;67836.59;;;10.14;100.00
18813;BME280;9534;51.140;6.296;2023-12-28T00:49:05;67836.03;;;10.14;100.00
18813;BME280;9534;51.140;6.296;2023-12-28T00:53:10;67847.16;;;10.19;100.00
18813;BME280;9534;51.140;6.296;2023-12-28T00:57:13;67847.59;;;10.17;100.00
18813;BME280;9534;51.140;6.296;2023-12-28T01:01:18;67853.16;;;10.29;100.00
18813;BME280;9534;51.140;6.296;2023-12-28T01:05:21;67878.25;;;10.51;100.00
18813;BME280;9534;51.140;6.296;2023-12-28T01:09:27;67886.66;;;10.56;100.00
18813;BME280;9534;51.140;6.296;2023-12-28T01:13:31;67882.97;;;10.57;100.00
18813;BME280;9534;51.140;6.296;2023-12-28T01:17:37;67899.66;;;10.65;100.00
18813;BME280;9534;51.140;6.296;2023-12-28T01:21:41;67899.09;;;10.64;100.00
18813;BME280;9534;51.140;6.296;2023-12-28T01:25:45;67900.66;;;10.73;100.00
18813;BME280;9534;51.140;6.296;2023-12-28T01:29:48;67908.38;;;10.75;100.00
18813;BME280;9534;51.140;6.296;2023-12-28T01:33:53;67911.38;;;10.80;100.00
18813;BME280;9534;51.140;6.296;2023-12-28T01:37:56;67917.94;;;10.81;100.00
18813;BME280;9534;51.140;6.296;2023-12-28T01:42:02;67934.34;;;10.93;100.00
18813;BME280;9534;51.140;6.296;2023-12-28T01:46:06;67924.22;;;10.96;100.00
18813;BME280;9534;51.140;6.296;2023-12-28T01:50:13;67943.91;;;10.99;100.00
18813;BME280;9534;51.140;6.296;2023-12-28T01:54:17;67939.03;;;10.99;100.00
18813;BME280;9534;51.140;6.296;2023-12-28T01:58:22;67941.50;;;11.04;100.00
18813;BME280;9534;51.140;6.296;2023-12-28T02:02:25;67947.19;;;11.08;100.00
18813;BME280;9534;51.140;6.296;2023-12-28T02:06:32;67938.78;;;11.04;100.00
18813;BME280;9534;51.140;6.296;2023-12-28T02:10:35;67926.22;;;10.93;100.00
18813;BME280;9534;51.140;6.296;2023-12-28T02:14:38;67918.78;;;10.86;100.00
18813;BME280;9534;51.140;6.296;2023-12-28T02:18:42;67903.81;;;10.71;100.00
18813;BME280;9534;51.140;6.296;2023-12-28T02:22:47;67901.94;;;10.67;100.00
18813;BME280;9534;51.140;6.296;2023-12-28T02:26:51;67895.38;;;10.66;100.00
18813;BME280;9534;51.140;6.296;2023-12-28T02:30:56;67887.09;;;10.54;100.00
18813;BME280;9534;51.140;6.296;2023-12-28T02:35:01;67893.94;;;10.60;100.00
18813;BME280;9534;51.140;6.296;2023-12-28T02:39:07;67875.97;;;10.49;100.00
18813;BME280;9534;51.140;6.296;2023-12-28T02:43:12;67870.25;;;10.44;100.00
18813;BME280;9534;51.140;6.296;2023-12-28T02:47:15;67872.53;;;10.46;100.00
18813;BME280;9534;51.140;6.296;2023-12-28T02:51:18;67875.69;;;10.44;100.00
18813;BME280;9534;51.140;6.296;2023-12-28T02:55:21;67861.56;;;10.34;100.00
18813;BME280;9534;51.140;6.296;2023-12-28T02:59:25;67858.13;;;10.31;100.00
18813;BME280;9534;51.140;6.296;2023-12-28T03:03:28;67858.13;;;10.31;100.00
18813;BME280;9534;51.140;6.296;2023-12-28T03:07:32;67847.16;;;10.19;100.00
18813;BME280;9534;51.140;6.296;2023-12-28T03:11:35;67842.19;;;10.17;100.00
18813;BME280;9534;51.140;6.296;2023-12-28T03:15:40;67830.75;;;10.07;100.00
18813;BME280;9534;51.140;6.296;2023-12-28T03:19:43;67832.88;;;10.06;100.00
18813;BME280;9534;51.140;6.296;2023-12-28T03:23:46;67822.75;;;10.00;100.00
18813;BME280;9534;51.140;6.296;2023-12-28T03:27:49;67821.19;;;10.01;100.00
18813;BME280;9534;51.140;6.296;2023-12-28T03:31:54;67830.59;;;10.04;100.00
18813;BME280;9534;51.140;6.296;2023-12-28T03:35:59;67824.75;;;9.97;100.00
18813;BME280;9534;51.140;6.296;2023-12-28T03:40:05;67814.19;;;9.92;100.00
18813;BME280;9534;51.140;6.296;2023-12-28T03:44:08;67809.50;;;9.86;100.00
18813;BME280;9534;51.140;6.296;2023-12-28T03:48:12;67804.66;;;9.86;100.00
18813;BME280;9534;51.140;6.296;2023-12-28T03:52:16;67804.19;;;9.88;100.00
18813;BME280;9534;51.140;6.296;2023-12-28T03:56:23;67809.78;;;9.91;100.00
18813;BME280;9534;51.140;6.296;2023-12-28T04:00:27;67809.78;;;9.91;100.00
18813;BME280;9534;51.140;6.296;2023-12-28T04:04:34;67809.78;;;9.91;100.00
18813;BME280;9534;51.140;6.296;2023-12-28T04:08:37;67806.66;;;9.83;100.00
18813;BME280;9534;51.140;6.296;2023-12-28T04:12:39;67801.66;;;9.82;100.00
18813;BME280;9534;51.140;6.296;2023-12-28T04:16:43;67791.53;;;9.75;100.00
18813;BME280;9534;51.140;6.296;2023-12-28T04:20:47;67802.63;;;9.80;100.00
18813;BME280;9534;51.140;6.296;2023-12-28T04:24:50;67804.50;;;9.84;100.00
18813;BME280;9534;51.140;6.296;2023-12-28T04:28:53;67808.34;;;9.85;100.00
18813;BME280;9534;51.140;6.296;2023-12-28T04:32:56;67801.06;;;9.81;100.00
18813;BME280;9534;51.140;6.296;2023-12-28T04:37:01;67815.47;;;9.96;100.00
18813;BME280;9534;51.140;6.296;2023-12-28T04:41:05;67831.47;;;10.10;100.00
18813;BME280;9534;51.140;6.296;2023-12-28T04:45:08;67847.16;;;10.19;100.00
18813;BME280;9534;51.140;6.296;2023-12-28T04:49:11;67845.59;;;10.20;100.00
18813;BME280;9534;51.140;6.296;2023-12-28T04:53:16;67841.03;;;10.16;100.00
18813;BME280;9534;51.140;6.296;2023-12-28T04:57:19;67852.28;;;10.23;100.00
18813;BME280;9534;51.140;6.296;2023-12-28T05:01:23;67857.88;;;10.26;100.00
18813;BME280;9534;51.140;6.296;2023-12-28T05:05:26;67850.88;;;10.27;100.00
18813;BME280;9534;51.140;6.296;2023-12-28T05:09:32;67851.16;;;10.22;100.00
18813;BME280;9534;51.140;6.296;2023-12-28T05:13:35;67850.88;;;10.27;100.00
18813;BME280;9534;51.140;6.296;2023-12-28T05:17:38;67852.88;;;10.24;100.00
18813;BME280;9534;51.140;6.296;2023-12-28T05:21:41;67849.59;;;10.23;100.00
18813;BME280;9534;51.140;6.296;2023-12-28T05:25:46;67851.44;;;10.27;100.00
18813;BME280;9534;51.140;6.296;2023-12-28T05:29:50;67866.97;;;10.34;100.00
18813;BME280;9534;51.140;6.296;2023-12-28T05:33:53;67861.13;;;10.36;100.00
18813;BME280;9534;51.140;6.296;2023-12-28T05:37:56;67870.69;;;10.42;100.00
18813;BME280;9534;51.140;6.296;2023-12-28T05:42:02;67872.97;;;10.44;100.00
18813;BME280;9534;51.140;6.296;2023-12-28T05:46:06;67874.53;;;10.43;100.00
18813;BME280;9534;51.140;6.296;2023-12-28T05:50:09;67866.28;;;10.40;100.00
18813;BME280;9534;51.140;6.296;2023-12-28T05:54:12;67872.97;;;10.44;100.00
18813;BME280;9534;51.140;6.296;2023-12-28T05:58:17;67884.09;;;10.49;100.00
18813;BME280;9534;51.140;6.296;2023-12-28T06:02:20;67879.09;;;10.47;100.00
18813;BME280;9534;51.140;6.296;2023-12-28T06:06:23;67879.97;;;10.52;100.00
18813;BME280;9534;51.140;6.296;2023-12-28T06:10:27;67872.53;;;10.46;100.00
18813;BME280;9534;51.140;6.296;2023-12-28T06:14:34;67882.53;;;10.50;100.00
18813;BME280;9534;51.140;6.296;2023-12-28T06:18:37;67883.25;;;10.53;100.00
18813;BME280;9534;51.140;6.296;2023-12-28T06:22:40;67885.53;;;10.55;100.00
18813;BME280;9534;51.140;6.296;2023-12-28T06:26:44;67888.81;;;10.55;100.00
18813;BME280;9534;51.140;6.296;2023-12-28T06:30:48;67885.69;;;10.57;100.00
18813;BME280;9534;51.140;6.296;2023-12-28T06:34:53;67891.66;;;10.58;100.00
18813;BME280;9534;51.140;6.296;2023-12-28T06:38:56;67891.25;;;10.60;100.00
18813;BME280;9534;51.140;6.296;2023-12-28T06:43:00;67895.09;;;10.61;100.00
18813;BME280;9534;51.140;6.296;2023-12-28T06:47:04;67890.81;;;10.62;100.00
18813;BME280;9534;51.140;6.296;2023-12-28T06:51:07;67890.81;;;10.62;100.00
18813;BME280;9534;51.140;6.296;2023-12-28T06:55:10;67893.94;;;10.60;100.00
18813;BME280;9534;51.140;6.296;2023-12-28T06:59:14;67897.38;;;10.63;100.00
18813;BME280;9534;51.140;6.296;2023-12-28T07:03:19;67894.53;;;10.60;100.00
18813;BME280;9534;51.140;6.296;2023-12-28T07:07:22;67896.22;;;10.62;100.00
18813;BME280;9534;51.140;6.296;2023-12-28T07:11:25;67897.38;;;10.63;100.00
18813;BME280;9534;51.140;6.296;2023-12-28T07:15:29;67898.50;;;10.64;100.00
18813;BME280;9534;51.140;6.296;2023-12-28T07:19:33;67900.97;;;10.68;100.00
18813;BME280;9534;51.140;6.296;2023-12-28T07:23:37;67903.66;;;10.68;100.00
18813;BME280;9534;51.140;6.296;2023-12-28T07:27:40;67910.94;;;10.72;100.00
18813;BME280;9534;51.140;6.296;2023-12-28T07:31:44;67906.50;;;10.71;100.00
18813;BME280;9534;51.140;6.296;2023-12-28T07:35:48;67895.38;;;10.66;100.00
18813;BME280;9534;51.140;6.296;2023-12-28T07:39:51;67897.66;;;10.68;100.00
18813;BME280;9534;51.140;6.296;2023-12-28T07:43:57;67896.81;;;10.62;100.00
18813;BME280;9534;51.140;6.296;2023-12-28T07:48:00;67889.38;;;10.56;100.00
18813;BME280;9534;51.140;6.296;2023-12-28T07:52:05;67892.25;;;10.58;100.00
18813;BME280;9534;51.140;6.296;2023-12-28T07:56:08;67897.66;;;10.68;100.00
18813;BME280;9534;51.140;6.296;2023-12-28T08:00:12;67892.38;;;10.61;100.00
18813;BME280;9534;51.140;6.296;2023-12-28T08:04:15;67885.41;;;10.52;100.00
18813;BME280;9534;51.140;6.296;2023-12-28T08:08:19;67878.53;;;10.46;100.00
18813;BME280;9534;51.140;6.296;2023-12-28T08:12:22;67870.13;;;10.41;100.00
18813;BME280;9534;51.140;6.296;2023-12-28T08:16:29;67873.56;;;10.44;100.00
18813;BME280;9534;51.140;6.296;2023-12-28T08:20:32;67863.41;;;10.38;100.00
18813;BME280;9534;51.140;6.296;2023-12-28T08:24:37;67853.16;;;10.29;100.00
18813;BME280;9534;51.140;6.296;2023-12-28T08:28:40;67873.41;;;10.42;100.00
18813;BME280;9534;51.140;6.296;2023-12-28T08:32:43;67874.53;;;10.43;100.00
18813;BME280;9534;51.140;6.296;2023-12-28T08:36:47;67873.97;;;10.52;100.00
18813;BME280;9534;51.140;6.296;2023-12-28T08:40:51;67913.34;;;10.77;100.00
18813;BME280;9534;51.140;6.296;2023-12-28T08:44:54;67918.22;;;10.86;100.00
18813;BME280;9534;51.140;6.296;2023-12-28T08:48:57;67930.50;;;10.92;100.00
18813;BME280;9534;51.140;6.296;2023-12-28T08:53:03;67936.91;;;11.00;100.00
18813;BME280;9534;51.140;6.296;2023-12-28T08:57:07;67945.03;;;11.09;100.00
18813;BME280;9534;51.140;6.296;2023-12-28T09:01:16;67968.75;;;11.25;100.00
18813;BME280;9534;51.140;6.296;2023-12-28T09:05:19;67993.59;;;11.51;100.00
18813;BME280;9534;51.140;6.296;2023-12-28T09:09:23;68020.75;;;11.70;100.00
18813;BME280;9534;51.140;6.296;2023-12-28T09:13:27;68035.75;;;11.86;100.00
18813;BME280;9534;51.140;6.296;2023-12-28T09:17:31;68068.75;;;12.12;100.00
18813;BME280;9534;51.140;6.296;2023-12-28T09:21:34;68060.75;;;12.05;100.00
18813;BME280;9534;51.140;6.296;2023-12-28T09:25:39;68063.31;;;12.12;100.00
18813;BME280;9534;51.140;6.296;2023-12-28T09:29:44;68047.03;;;12.03;100.00
18813;BME280;9534;51.140;6.296;2023-12-28T09:33:48;68067.31;;;12.06;100.00
18813;BME280;9534;51.140;6.296;2023-12-28T09:37:52;68048.75;;;12.04;100.00
18813;BME280;9534;51.140;6.296;2023-12-28T09:41:59;68058.47;;;12.03;100.00
18813;BME280;9534;51.140;6.296;2023-12-28T09:46:07;68085.34;;;12.27;100.00
18813;BME280;9534;51.140;6.296;2023-12-28T09:50:11;68077.91;;;12.20;100.00
18813;BME280;9534;51.140;6.296;2023-12-28T09:54:16;68037.47;;;11.87;100.00
18813;BME280;9534;51.140;6.296;2023-12-28T09:58:21;68040.91;;;11.90;100.00
18813;BME280;9534;51.140;6.296;2023-12-28T10:02:26;68068.19;;;12.12;100.00
18813;BME280;9534;51.140;6.296;2023-12-28T10:06:29;68035.31;;;11.88;100.00
18813;BME280;9534;51.140;6.296;2023-12-28T10:10:33;68071.47;;;12.22;100.00
18813;BME280;9534;51.140;6.296;2023-12-28T10:14:37;68086.06;;;12.30;100.00
18813;BME280;9534;51.140;6.296;2023-12-28T10:18:42;68053.91;;;11.99;100.00
18813;BME280;9534;51.140;6.296;2023-12-28T10:22:47;68023.03;;;11.72;100.00
18813;BME280;9534;51.140;6.296;2023-12-28T10:26:52;68004.72;;;11.56;100.00
18813;BME280;9534;51.140;6.296;2023-12-28T10:30:55;67999.59;;;11.52;100.00
18813;BME280;9534;51.140;6.296;2023-12-28T10:35:01;68003.03;;;11.55;100.00
18813;BME280;9534;51.140;6.296;2023-12-28T10:39:05;68013.47;;;11.66;100.00
18813;BME280;9534;51.140;6.296;2023-12-28T10:43:14;68041.34;;;11.88;100.00
18813;BME280;9534;51.140;6.296;2023-12-28T10:47:18;68066.47;;;12.10;100.00
18813;BME280;9534;51.140;6.296;2023-12-28T10:51:24;68074.19;;;12.22;100.00
18813;BME280;9534;51.140;6.296;2023-12-28T10:55:30;68084.75;;;12.26;100.00
18813;BME280;9534;51.140;6.296;2023-12-28T10:59:39;68069.19;;;12.20;100.00
18813;BME280;9534;51.140;6.296;2023-12-28T11:03:45;68089.63;;;12.35;100.00
18813;BME280;9534;51.140;6.296;2023-12-28T11:07:53;68101.06;;;12.45;100.00
18813;BME280;9534;51.140;6.296;2023-12-28T11:11:58;68124.22;;;12.60;100.00
18813;BME280;9534;51.140;6.296;2023-12-28T11:16:03;68114.94;;;12.50;100.00
18813;BME280;9534;51.140;6.296;2023-12-28T11:20:07;68100.78;;;12.40;100.00
18813;BME280;9534;51.140;6.296;2023-12-28T11:24:14;68125.06;;;12.66;100.00
18813;BME280;9534;51.140;6.296;2023-12-28T11:28:19;68140.38;;;12.77;100.00
18813;BME280;9534;51.140;6.296;2023-12-28T11:32:22;68107.63;;;12.46;100.00
18813;BME280;9534;51.140;6.296;2023-12-28T11:36:26;68087.75;;;12.31;100.00
18813;BME280;9534;51.140;6.296;2023-12-28T11:40:41;68098.91;;;12.36;100.00
18813;BME280;9534;51.140;6.296;2023-12-28T11:44:45;68109.34;;;12.47;100.00
18813;BME280;9534;51.140;6.296;2023-12-28T11:48:49;68102.63;;;12.44;100.00
18813;BME280;9534;51.140;6.296;2023-12-28T11:52:53;68125.06;;;12.66;100.00
18813;BME280;9534;51.140;6.296;2023-12-28T11:56:58;68137.66;;;12.77;100.00
18813;BME280;9534;51.140;6.296;2023-12-28T12:01:02;68111.34;;;12.54;100.00
18813;BME280;9534;51.140;6.296;2023-12-28T12:05:06;68123.94;;;12.65;100.00
18813;BME280;9534;51.140;6.296;2023-12-28T12:09:10;68120.34;;;12.59;100.00
18813;BME280;9534;51.140;6.296;2023-12-28T12:13:15;68084.34;;;12.28;100.00
18813;BME280;9534;51.140;6.296;2023-12-28T12:17:18;68089.34;;;12.30;100.00
18813;BME280;9534;51.140;6.296;2023-12-28T12:21:23;68084.63;;;12.24;100.00
18813;BME280;9534;51.140;6.296;2023-12-28T12:25:26;68079.31;;;12.26;100.00
18813;BME280;9534;51.140;6.296;2023-12-28T12:29:30;68082.03;;;12.26;100.00
18813;BME280;9534;51.140;6.296;2023-12-28T12:33:36;68074.47;;;12.17;100.00
18813;BME280;9534;51.140;6.296;2023-12-28T12:37:42;68073.59;;;12.21;100.00
18813;BME280;9534;51.140;6.296;2023-12-28T12:41:46;68069.03;;;12.17;100.00
18813;BME280;9534;51.140;6.296;2023-12-28T12:45:52;68077.91;;;12.20;100.00
18813;BME280;9534;51.140;6.296;2023-12-28T12:49:55;68074.63;;;12.20;100.00
18813;BME280;9534;51.140;6.296;2023-12-28T12:53:59;68080.19;;;12.22;100.00
18813;BME280;9534;51.140;6.296;2023-12-28T12:58:03;68065.31;;;12.09;100.00
18813;BME280;9534;51.140;6.296;2023-12-28T13:02:08;68063.03;;;12.07;100.00
18813;BME280;9534;51.140;6.296;2023-12-28T13:06:13;68068.75;;;12.12;100.00
18813;BME280;9534;51.140;6.296;2023-12-28T13:10:16;68064.88;;;12.11;100.00
18813;BME280;9534;51.140;6.296;2023-12-28T13:14:19;68068.91;;;12.15;100.00
18813;BME280;9534;51.140;6.296;2023-12-28T13:18:25;68066.47;;;12.10;100.00
18813;BME280;9534;51.140;6.296;2023-12-28T13:22:28;68056.03;;;12.08;100.00
18813;BME280;9534;51.140;6.296;2023-12-28T13:26:31;68061.88;;;12.06;100.00
18813;BME280;9534;51.140;6.296;2023-12-28T13:30:34;68064.19;;;12.08;100.00
18813;BME280;9534;51.140;6.296;2023-12-28T13:34:41;68056.75;;;12.02;100.00
18813;BME280;9534;51.140;6.296;2023-12-28T13:38:44;68051.03;;;11.97;100.00
18813;BME280;9534;51.140;6.296;2023-12-28T13:42:48;68043.75;;;11.93;100.00
18813;BME280;9534;51.140;6.296;2023-12-28T13:46:51;68050.47;;;11.96;100.00
18813;BME280;9534;51.140;6.296;2023-12-28T13:50:58;68041.47;;;11.91;100.00
18813;BME280;9534;51.140;6.296;2023-12-28T13:55:03;68046.78;;;11.88;100.00
18813;BME280;9534;51.140;6.296;2023-12-28T13:59:06;68034.59;;;11.85;100.00
18813;BME280;9534;51.140;6.296;2023-12-28T14:03:10;68035.63;;;11.83;100.00
18813;BME280;9534;51.140;6.296;2023-12-28T14:07:15;68022.19;;;11.76;100.00
18813;BME280;9534;51.140;6.296;2023-12-28T14:11:18;68026.03;;;11.77;100.00
18813;BME280;9534;51.140;6.296;2023-12-28T14:15:20;68019.75;;;11.72;100.00
18813;BME280;9534;51.140;6.296;2023-12-28T14:19:24;68023.03;;;11.72;100.00
18813;BME280;9534;51.140;6.296;2023-12-28T14:23:29;68013.03;;;11.68;100.00
18813;BME280;9534;51.140;6.296;2023-12-28T14:27:33;68028.47;;;11.72;100.00
18813;BME280;9534;51.140;6.296;2023-12-28T14:31:36;68015.03;;;11.65;100.00
18813;BME280;9534;51.140;6.296;2023-12-28T14:35:40;68009.31;;;11.60;100.00
18813;BME280;9534;51.140;6.296;2023-12-28T14:39:49;68000.44;;;11.57;100.00
18813;BME280;9534;51.140;6.296;2023-12-28T14:43:55;68000.56;;;11.60;100.00
18813;BME280;9534;51.140;6.296;2023-12-28T14:47:59;67998.59;;;11.53;100.00
18813;BME280;9534;51.140;6.296;2023-12-28T14:52:03;67986.31;;;11.47;100.00
18813;BME280;9534;51.140;6.296;2023-12-28T14:56:08;67988.19;;;11.42;100.00
18813;BME280;9534;51.140;6.296;2023-12-28T15:00:13;67982.31;;;11.34;100.00
18813;BME280;9534;51.140;6.296;2023-12-28T15:04:17;67982.31;;;11.34;100.00
18813;BME280;9534;51.140;6.296;2023-12-28T15:08:25;67967.75;;;11.26;100.00
18813;BME280;9534;51.140;6.296;2023-12-28T15:12:31;67966.59;;;11.25;100.00
18813;BME280;9534;51.140;6.296;2023-12-28T15:16:36;67967.44;;;11.21;100.00
18813;BME280;9534;51.140;6.296;2023-12-28T15:20:40;67955.63;;;11.13;100.00
18813;BME280;9534;51.140;6.296;2023-12-28T15:24:45;67945.03;;;11.09;100.00
18813;BME280;9534;51.140;6.296;2023-12-28T15:28:49;67953.75;;;11.09;100.00
18813;BME280;9534;51.140;6.296;2023-12-28T15:32:53;67950.34;;;11.07;100.00
18813;BME280;9534;51.140;6.296;2023-12-28T15:37:00;67938.78;;;11.04;100.00
18813;BME280;9534;51.140;6.296;2023-12-28T15:41:03;67933.50;;;10.97;100.00
18813;BME280;9534;51.140;6.296;2023-12-28T15:45:08;67949.19;;;11.06;100.00
18813;BME280;9534;51.140;6.296;2023-12-28T15:49:13;67944.19;;;11.04;100.00
18813;BME280;9534;51.140;6.296;2023-12-28T15:53:17;67942.19;;;11.07;100.00
18813;BME280;9534;51.140;6.296;2023-12-28T15:57:20;67941.34;;;11.01;100.00
18813;BME280;9534;51.140;6.296;2023-12-28T16:01:25;67940.34;;;11.03;100.00
18813;BME280;9534;51.140;6.296;2023-12-28T16:05:28;67932.06;;;10.91;100.00
18813;BME280;9534;51.140;6.296;2023-12-28T16:09:32;67920.94;;;10.86;100.00
18813;BME280;9534;51.140;6.296;2023-12-28T16:13:37;67936.19;;;10.97;100.00
18813;BME280;9534;51.140;6.296;2023-12-28T16:17:44;67942.63;;;11.05;100.00
18813;BME280;9534;51.140;6.296;2023-12-28T16:21:50;67929.78;;;10.89;100.00
18813;BME280;9534;51.140;6.296;2023-12-28T16:25:53;67920.50;;;10.88;100.00
18813;BME280;9534;51.140;6.296;2023-12-28T16:29:56;67925.63;;;10.83;100.00
18813;BME280;9534;51.140;6.296;2023-12-28T16:34:01;67919.50;;;10.80;100.00
18813;BME280;9534;51.140;6.296;2023-12-28T16:38:10;67920.50;;;10.88;100.00
18813;BME280;9534;51.140;6.296;2023-12-28T16:42:13;67939.03;;;10.99;100.00
18813;BME280;9534;51.140;6.296;2023-12-28T16:46:16;67934.06;;;10.97;100.00
18813;BME280;9534;51.140;6.296;2023-12-28T16:50:21;67923.50;;;10.93;100.00
18813;BME280;9534;51.140;6.296;2023-12-28T16:54:26;67931.22;;;10.95;100.00
18813;BME280;9534;51.140;6.296;2023-12-28T16:58:29;67928.78;;;10.90;100.00
18813;BME280;9534;51.140;6.296;2023-12-28T17:02:33;67927.06;;;10.89;100.00
18813;BME280;9534;51.140;6.296;2023-12-28T17:06:38;67926.22;;;10.93;100.00
18813;BME280;9534;51.140;6.296;2023-12-28T17:10:41;67923.63;;;10.86;100.00
18813;BME280;9534;51.140;6.296;2023-12-28T17:14:45;67923.22;;;10.88;100.00
18813;BME280;9534;51.140;6.296;2023-12-28T17:18:48;67922.63;;;10.87;100.00
18813;BME280;9534;51.140;6.296;2023-12-28T17:22:54;67916.78;;;10.80;100.00
18813;BME280;9534;51.140;6.296;2023-12-28T17:27:01;67927.06;;;10.89;100.00
18813;BME280;9534;51.140;6.296;2023-12-28T17:31:10;67919.50;;;10.80;100.00
18813;BME280;9534;51.140;6.296;2023-12-28T17:35:17;67912.22;;;10.76;100.00
18813;BME280;9534;51.140;6.296;2023-12-28T17:39:22;67911.38;;;10.80;100.00
18813;BME280;9534;51.140;6.296;2023-12-28T17:43:28;67909.09;;;10.78;100.00
18813;BME280;9534;51.140;6.296;2023-12-28T17:47:34;67914.50;;;10.78;100.00
18813;BME280;9534;51.140;6.296;2023-12-28T17:51:39;67900.81;;;10.66;100.00
18813;BME280;9534;51.140;6.296;2023-12-28T17:55:44;67890.81;;;10.62;100.00
18813;BME280;9534;51.140;6.296;2023-12-28T17:59:49;67894.53;;;10.60;100.00
18813;BME280;9534;51.140;6.296;2023-12-28T18:03:52;67892.53;;;10.63;100.00
18813;BME280;9534;51.140;6.296;2023-12-28T18:07:56;67888.53;;;10.60;100.00
18813;BME280;9534;51.140;6.296;2023-12-28T18:12:01;67905.22;;;10.67;100.00
18813;BME280;9534;51.140;6.296;2023-12-28T18:16:05;67896.09;;;10.59;100.00
18813;BME280;9534;51.140;6.296;2023-12-28T18:20:12;67897.38;;;10.63;100.00
18813;BME280;9534;51.140;6.296;2023-12-28T18:24:17;67885.97;;;10.53;100.00
18813;BME280;9534;51.140;6.296;2023-12-28T18:28:22;67894.97;;;10.58;100.00
18813;BME280;9534;51.140;6.296;2023-12-28T18:32:27;67892.81;;;10.59;100.00
18813;BME280;9534;51.140;6.296;2023-12-28T18:36:30;67885.09;;;10.57;100.00
18813;BME280;9534;51.140;6.296;2023-12-28T18:40:33;67892.81;;;10.59;100.00
18813;BME280;9534;51.140;6.296;2023-12-28T18:44:38;67896.81;;;10.62;100.00
18813;BME280;9534;51.140;6.296;2023-12-28T18:48:44;67905.38;;;10.70;100.00
18813;BME280;9534;51.140;6.296;2023-12-28T18:52:49;67905.94;;;10.70;100.00
18813;BME280;9534;51.140;6.296;2023-12-28T18:56:52;67909.94;;;10.74;100.00
18813;BME280;9534;51.140;6.296;2023-12-28T19:00:59;67904.81;;;10.69;100.00
18813;BME280;9534;51.140;6.296;2023-12-28T19:05:03;67912.22;;;10.76;100.00
18813;BME280;9534;51.140;6.296;2023-12-28T19:09:09;67909.63;;;10.78;100.00
18813;BME280;9534;51.140;6.296;2023-12-28T19:13:13;67909.94;;;10.74;100.00
18813;BME280;9534;51.140;6.296;2023-12-28T19:17:20;67908.94;;;10.75;100.00
18813;BME280;9534;51.140;6.296;2023-12-28T19:21:23;67914.94;;;10.76;100.00
18813;BME280;9534;51.140;6.296;2023-12-28T19:25:28;67909.09;;;10.78;100.00
18813;BME280;9534;51.140;6.296;2023-12-28T19:29:34;67918.19;;;10.76;100.00
18813;BME280;9534;51.140;6.296;2023-12-28T19:33:40;67913.78;;;10.75;100.00
18813;BME280;9534;51.140;6.296;2023-12-28T19:37:46;67908.66;;;10.70;100.00
18813;BME280;9534;51.140;6.296;2023-12-28T19:41:53;67908.78;;;10.73;100.00
18813;BME280;9534;51.140;6.296;2023-12-28T19:45:57;67902.34;;;10.74;100.00
18813;BME280;9534;51.140;6.296;2023-12-28T19:50:03;67909.94;;;10.74;100.00
18813;BME280;9534;51.140;6.296;2023-12-28T19:54:09;67904.38;;;10.71;100.00
18813;BME280;9534;51.140;6.296;2023-12-28T19:58:12;67906.50;;;10.71;100.00
18813;BME280;9534;51.140;6.296;2023-12-28T20:02:15;67903.50;;;10.66;100.00
18813;BME280;9534;51.140;6.296;2023-12-28T20:06:21;67892.66;;;10.66;100.00
18813;BME280;9534;51.140;6.296;2023-12-28T20:10:24;67900.81;;;10.66;100.00
18813;BME280;9534;51.140;6.296;2023-12-28T20:14:27;67892.09;;;10.56;100.00
18813;BME280;9534;51.140;6.296;2023-12-28T20:18:30;67886.66;;;10.56;100.00
18813;BME280;9534;51.140;6.296;2023-12-28T20:22:37;67888.94;;;10.58;100.00
18813;BME280;9534;51.140;6.296;2023-12-28T20:26:40;67890.53;;;10.57;100.00
18813;BME280;9534;51.140;6.296;2023-12-28T20:30:44;67888.66;;;10.53;100.00
18813;BME280;9534;51.140;6.296;2023-12-28T20:34:48;67889.38;;;10.56;100.00
18813;BME280;9534;51.140;6.296;2023-12-28T20:38:53;67892.81;;;10.59;100.00
18813;BME280;9534;51.140;6.296;2023-12-28T20:42:56;67892.09;;;10.56;100.00
18813;BME280;9534;51.140;6.296;2023-12-28T20:47:00;67886.66;;;10.56;100.00
18813;BME280;9534;51.140;6.296;2023-12-28T20:51:04;67879.69;;;10.47;100.00
18813;BME280;9534;51.140;6.296;2023-12-28T20:55:09;67886.38;;;10.51;100.00
18813;BME280;9534;51.140;6.296;2023-12-28T20:59:15;67887.09;;;10.54;100.00
18813;BME280;9534;51.140;6.296;2023-12-28T21:03:19;67880.81;;;10.48;100.00
18813;BME280;9534;51.140;6.296;2023-12-28T21:07:23;67876.41;;;10.47;100.00
18813;BME280;9534;51.140;6.296;2023-12-28T21:11:32;67879.09;;;10.47;100.00
18813;BME280;9534;51.140;6.296;2023-12-28T21:15:37;67885.81;;;10.60;100.00
18813;BME280;9534;51.140;6.296;2023-12-28T21:19:40;67888.53;;;10.60;100.00
18813;BME280;9534;51.140;6.296;2023-12-28T21:23:48;67882.53;;;10.50;100.00
18813;BME280;9534;51.140;6.296;2023-12-28T21:27:54;67890.53;;;10.57;100.00
18813;BME280;9534;51.140;6.296;2023-12-28T21:32:00;67891.66;;;10.58;100.00